Impacts METAR Board
IDs:

KMCO - Orlando Intl, FL, US

Updated at: 2200 UTC 01 Mar 2021
Potential Impact None Slight Moderate High
Time 01/10Z 01/11Z 01/12Z 01/13Z 01/14Z 01/15Z 01/16Z 01/17Z 01/18Z 01/19Z 01/20Z 01/21Z 01/22Z
Temp69 70 70 71 74 78 82 81 85 85 87 85 87
Dewpt69 70 69 70 69 69 68 67 68 67 65 65 63
Altim30.07 30.08 30.10 30.11 30.13 30.12 30.11 30.09 30.07 30.03 30.01 30.00 29.99
VIS7 8 10 10 10 10 10 10 10 10 10 10 10
CIG-- 9 15 300 300 300 -- 30 39 -- 300 300 300
CoverSCTOVCBKNBKNBKNBKNSCTBKNBKNSCTBKNBKNBKN
FltCatVFRIFRMVFRVFRVFRVFRVFRMVFRVFRVFRVFRVFRVFR
WX--------------------------
WDir0190180190200190200230240270210230260
WSpd0 7 6 5 9 14 13 12 12 9 10 9 10
WGst-- -- -- -- -- -- 19 -- -- -- -- -- --
Raw hourly METARs
KMCO 010953Z 00000KT 7SM FEW009 SCT014 SCT250 21/21 A3007 RMK AO2 SLP182 T02060206
KMCO 011053Z 19007KT 8SM OVC009 21/21 A3008 RMK AO2 SLP186 T02110211
KMCO 011153Z 18006KT 10SM SCT008 BKN015 BKN300 21/21 A3010 RMK AO2 SLP190 T02110206 10222 20200 53012
KMCO 011253Z 19005KT 10SM FEW007 SCT014 BKN300 22/21 A3011 RMK AO2 SLP195 SCT V BKN T02170211
KMCO 011353Z 20009KT 10SM SCT013 BKN300 23/21 A3013 RMK AO2 SLP200 T02330206
KMCO 011453Z 19014KT 10SM SCT021 BKN300 26/21 A3012 RMK AO2 SLP198 T02560206 50008
KMCO 011553Z 20013G19KT 10SM SCT026 SCT300 28/20 A3011 RMK AO2 SLP195 T02780200
KMCO 011653Z 23012KT 10SM BKN030 27/19 A3009 RMK AO2 SLP189 T02720194
KMCO 011753Z 24012KT 10SM BKN039 29/20 A3007 RMK AO2 SLP180 T02940200 10294 20206 58018
KMCO 011853Z 27009KT 10SM SCT041 SCT300 29/19 A3003 RMK AO2 SLP166 T02940194
KMCO 011953Z 21010KT 10SM SCT044 BKN300 31/18 A3001 RMK AO2 SLP160 T03060183
KMCO 012053Z 23009KT 10SM FEW045 BKN300 29/18 A3000 RMK AO2 SLP156 T02940183 56024
KMCO 012153Z 26010KT 10SM FEW045 SCT095 BKN300 31/17 A2999 RMK AO2 SLP155 T03060172



Page loaded:  22:39 UTC  |   02:39 PM Pacific  |   03:39 PM Mountain  |   04:39 PM Central  |   05:39 PM Eastern

 

ADVISORIES

FORECASTS

FORECASTS

OBSERVATIONS

USER TOOLS

ABOUT US